MST,Max TemperatureF,Mean TemperatureF,Min TemperatureF,Max Dew PointF,MeanDew PointF,Min DewpointF,Max Humidity, Mean Humidity, Min Humidity, Max Sea Level PressureIn, Mean Sea Level PressureIn, Min Sea Level PressureIn, Max VisibilityMiles, Mean VisibilityMiles, Min VisibilityMiles, Max Wind SpeedMPH, Mean Wind SpeedMPH, Max Gust SpeedMPH,PrecipitationIn, CloudCover, Events, WindDirDegrees
2012-12-1,55,42,29,32,28,26,89,62,35,29.85,29.80,29.75,10,10,10,32,9,41,0.00,1,,233
2012-12-2,63,47,31,35,30,26,78,55,32,29.81,29.53,29.31,10,10,10,55,9,68,0.00,0,,282
2012-12-3,53,40,27,18,15,9,58,38,17,30.27,29.98,29.77,10,10,10,24,8,41,0.00,0,,281
2012-12-4,43,33,22,24,20,15,85,64,43,30.25,30.12,29.99,10,10,10,9,3,13,0.00,1,,244
2012-12-5,50,39,28,32,27,19,85,64,43,30.07,29.88,29.73,10,10,10,21,6,25,0.00,3,,329
2012-12-6,40,35,29,28,23,15,100,70,40,30.11,29.99,29.87,10,7,0,16,6,22,0.25,5,Fog-Snow,6
2012-12-7,31,21,11,27,18,8,92,71,50,30.03,29.93,29.75,10,8,1,17,6,21,0.04,4,Snow,226
2012-12-8,38,24,9,25,14,4,88,63,38,30.35,29.90,29.62,10,4,0,38,18,47,T,7,Fog-Snow,318
2012-12-9,18,9,-1,8,4,-4,87,74,61,30.53,30.33,30.06,10,10,10,17,3,20,0.00,4,,271
2012-12-10,32,24,15,25,17,9,88,72,55,30.03,29.97,29.80,10,8,1,31,12,38,T,6,Snow,290
2012-12-11,42,30,17,24,17,7,72,56,39,30.00,29.76,29.59,10,10,10,17,6,20,0.00,4,,200
2012-12-12,42,32,22,26,24,20,85,69,53,29.94,29.70,29.60,10,10,10,16,6,18,0.00,3,,314
2012-12-13,36,26,15,26,18,13,92,81,69,30.00,29.93,29.75,10,10,10,10,2,10,0.00,0,,256
2012-12-14,38,27,16,26,21,14,92,76,59,29.86,29.76,29.64,10,10,10,17,6,22,0.00,0,,305
2012-12-15,37,29,21,27,25,20,92,78,64,29.86,29.80,29.72,10,10,7,20,5,23,T,7,Snow,299
2012-12-16,36,25,13,22,17,12,96,76,56,29.87,29.75,29.57,10,10,7,8,2,9,0.00,4,,237
2012-12-17,37,27,16,31,20,11,92,75,58,29.71,29.53,29.41,10,9,2,28,6,35,0.02,5,Snow,265
2012-12-18,34,25,15,22,8,1,75,54,32,29.91,29.77,29.57,10,10,10,30,11,37,0.00,0,,292
2012-12-19,29,18,7,5,1,-2,76,55,34,30.25,30.12,29.95,10,10,10,25,6,30,0.00,0,,274
2012-12-20,42,24,6,17,8,-2,76,53,30,30.22,30.15,30.08,10,10,10,22,3,24,0.00,0,,170
2012-12-21,40,28,15,20,14,10,80,62,44,30.13,30.07,30.01,10,10,10,9,2,10,0.00,0,,332
2012-12-22,34,23,12,17,13,8,88,68,47,30.15,30.02,29.76,10,10,8,14,3,16,0.00,0,,326
2012-12-23,36,24,12,20,13,10,96,76,56,30.11,29.99,29.76,10,9,7,17,5,20,0.00,4,,278
2012-12-24,17,10,3,12,6,-2,92,83,73,30.45,30.13,29.90,10,6,2,21,10,24,0.02,7,Snow,309
2012-12-25,13,4,-5,2,-3,-8,87,74,61,30.50,30.36,30.19,10,9,2,14,2,17,0.01,4,Snow,317
2012-12-26,16,7,-2,10,5,-4,95,83,70,30.15,29.93,29.71,10,6,2,14,3,16,0.09,6,Snow,321
2012-12-27,21,12,2,11,8,-1,87,75,62,30.11,29.93,29.75,10,6,1,18,7,22,0.07,8,Snow,305
2012-12-28,31,18,4,20,11,-1,87,73,58,30.20,30.10,29.89,10,10,9,17,4,20,T,5,,287
2012-12-29,23,12,1,9,3,-5,76,67,57,30.26,30.16,30.09,10,10,10,13,4,15,0.00,0,,262
2012-12-30,28,15,1,14,5,-2,87,67,46,30.25,30.18,30.09,10,10,10,13,4,14,0.00,0,,260
2012-12-31,29,14,-1,15,5,-4,87,67,46,30.27,30.20,30.00,10,10,10,9,2,10,0.00,3,,227